Time;durP1;ratioP1;P1;durP2;ratioP2;P2;SDS_P1;SDS_P2;PMS_P1;PMS_P2;Temp;Humidity;BMP_temperature;BMP_pressure;BME280_temperature;BME280_humidity;BME280_pressure;Samples;Min_cycle;Max_cycle;Signal;HPM_P1;HPM_P2
2021/12/05 00:18:23;;;;;;;4.93;1.67;;;;;;;5.68;78.06;99195.94;5039108;28;20927;-79
2021/12/05 00:21:04;;;;;;;4.93;1.80;;;;;;;5.66;78.40;99208.78;5035255;28;20513;-79
2021/12/05 00:23:37;;;;;;;2.20;1.10;;;;;;;5.70;78.21;99206.44;5044327;28;20401;-79
2021/12/05 00:26:03;;;;;;;3.67;1.33;;;;;;;5.73;78.23;99200.56;5041467;28;20406;-79
2021/12/05 00:29:08;;;;;;;6.25;1.50;;;;;;;5.73;77.81;99193.31;5036910;28;20417;-79
2021/12/05 00:39:35;;;;;;;6.47;1.83;;;;;;;5.60;78.40;99207.06;5040287;28;20421;-79
2021/12/05 00:42:13;;;;;;;4.53;1.00;;;;;;;5.53;78.86;99203.72;5044271;28;20431;-79
2021/12/05 00:47:46;;;;;;;6.55;1.73;;;;;;;5.62;78.18;99198.78;4979908;28;20486;-79
2021/12/05 00:56:01;;;;;;;4.40;1.27;;;;;;;5.56;79.15;99200.59;5045522;28;20451;-78
2021/12/05 01:01:45;;;;;;;8.23;1.40;;;;;;;5.44;79.08;99202.50;5039007;28;20738;-79
2021/12/05 01:04:31;;;;;;;4.68;1.27;;;;;;;5.38;79.12;99205.34;5037905;28;20386;-78
2021/12/05 01:07:15;;;;;;;6.97;1.98;;;;;;;5.39;79.35;99196.22;5049936;28;20436;-78
2021/12/05 01:14:53;;;;;;;6.35;2.00;;;;;;;5.27;79.99;99195.50;5049848;28;20770;-78
2021/12/05 01:17:23;;;;;;;5.45;1.92;;;;;;;5.25;80.01;99195.72;5036698;28;20410;-78
2021/12/05 01:19:49;;;;;;;5.22;1.90;;;;;;;5.23;80.12;99195.97;5032717;28;20514;-78
2021/12/05 01:22:18;;;;;;;5.63;1.55;;;;;;;5.21;80.32;99195.38;5046956;28;20419;-78
2021/12/05 01:27:17;;;;;;;3.92;1.48;;;;;;;5.17;80.61;99201.50;5042392;28;20459;-78
2021/12/05 01:30:00;;;;;;;9.35;1.95;;;;;;;5.20;81.16;99209.06;5049003;28;20405;-78
2021/12/05 01:35:07;;;;;;;4.83;1.57;;;;;;;5.09;82.38;99194.63;5037664;28;20739;-78
2021/12/05 01:37:53;;;;;;;8.00;1.83;;;;;;;5.13;82.99;99192.28;5033447;28;20996;-78
2021/12/05 01:46:19;;;;;;;7.88;1.73;;;;;;;5.20;82.64;99188.38;5034094;28;20904;-79
2021/12/05 01:51:45;;;;;;;6.53;1.83;;;;;;;5.17;82.36;99183.47;5048332;28;20406;-79
2021/12/05 01:59:25;;;;;;;6.82;1.52;;;;;;;5.25;82.08;99176.91;5033533;28;20409;-79
2021/12/05 02:10:48;;;;;;;6.15;1.42;;;;;;;5.06;82.67;99167.44;5037243;28;20473;-79
2021/12/05 02:29:37;;;;;;;7.35;1.90;;;;;;;5.17;81.63;99145.09;5049373;28;20881;-79
2021/12/05 02:42:12;;;;;;;3.25;1.08;;;;;;;5.21;81.28;99148.91;5038900;28;20980;-80
2021/12/05 02:44:39;;;;;;;8.65;1.77;;;;;;;5.19;80.73;99148.34;5030054;28;20446;-78
2021/12/05 02:47:09;;;;;;;7.10;1.17;;;;;;;5.08;81.46;99139.28;5038302;28;20426;-78
2021/12/05 02:49:37;;;;;;;5.47;1.20;;;;;;;5.00;81.75;99147.75;5040547;28;20433;-79
2021/12/05 02:52:08;;;;;;;3.45;1.17;;;;;;;5.07;81.72;99145.69;5039224;28;20488;-79
2021/12/05 02:54:40;;;;;;;4.38;1.80;;;;;;;5.05;82.27;99144.31;5038935;28;20408;-79
2021/12/05 02:57:08;;;;;;;6.50;1.10;;;;;;;5.20;81.22;99140.03;5037750;28;20412;-78
2021/12/05 03:02:08;;;;;;;6.88;1.30;;;;;;;5.19;81.50;99134.91;5042920;28;20413;-79
2021/12/05 03:04:41;;;;;;;6.38;1.60;;;;;;;5.20;81.29;99131.97;5041996;28;20585;-78
2021/12/05 03:07:08;;;;;;;5.22;1.23;;;;;;;5.16;80.75;99130.03;5033548;28;20798;-79
2021/12/05 03:09:35;;;;;;;5.97;1.33;;;;;;;5.07;81.64;99121.53;5033085;28;20404;-79
2021/12/05 03:12:02;;;;;;;4.57;1.25;;;;;;;5.05;81.36;99129.03;5036291;28;20421;-79
2021/12/05 03:14:27;;;;;;;5.17;1.33;;;;;;;5.01;81.63;99127.06;5038761;28;20484;-78
2021/12/05 03:16:53;;;;;;;2.90;1.50;;;;;;;4.90;81.79;99133.31;5041465;28;21139;-79
2021/12/05 03:19:19;;;;;;;4.47;1.10;;;;;;;4.89;81.69;99115.56;5043207;28;20412;-78
2021/12/05 03:21:47;;;;;;;6.28;1.13;;;;;;;4.75;81.98;99116.91;5042427;28;20892;-79
2021/12/05 03:24:15;;;;;;;4.70;1.10;;;;;;;4.78;81.86;99133.34;5038735;28;20439;-78
2021/12/05 03:26:50;;;;;;;4.28;0.90;;;;;;;4.81;81.78;99122.13;5027339;28;20430;-78
2021/12/05 03:29:17;;;;;;;5.82;1.50;;;;;;;4.79;82.00;99123.44;5038951;28;20422;-78
2021/12/05 03:31:44;;;;;;;4.68;0.98;;;;;;;4.72;82.22;99131.63;5039050;28;20415;-78
2021/12/05 03:34:13;;;;;;;5.93;1.20;;;;;;;4.85;81.87;99125.97;5030771;28;20411;-78
2021/12/05 03:36:41;;;;;;;5.88;1.10;;;;;;;4.96;81.82;99124.28;5037371;28;20874;-79
2021/12/05 03:39:08;;;;;;;4.65;1.13;;;;;;;4.93;81.86;99128.28;5046390;28;20408;-79
2021/12/05 03:41:35;;;;;;;6.72;1.23;;;;;;;4.80;82.49;99120.50;5039928;28;20463;-79
2021/12/05 03:44:03;;;;;;;3.70;1.02;;;;;;;4.79;82.39;99118.06;5031032;28;20891;-79
2021/12/05 03:46:31;;;;;;;4.13;1.10;;;;;;;4.80;82.49;99119.69;5038614;28;20429;-79
2021/12/05 03:49:01;;;;;;;6.35;1.00;;;;;;;4.83;82.72;99121.91;5035802;28;20437;-79
2021/12/05 03:51:29;;;;;;;4.70;1.10;;;;;;;4.81;82.82;99119.44;5041164;28;20424;-79
2021/12/05 03:53:55;;;;;;;7.03;1.50;;;;;;;4.56;83.31;99118.97;5037046;28;20499;-79
2021/12/05 03:56:20;;;;;;;5.70;1.30;;;;;;;4.47;83.23;99113.16;5029723;28;22110;-79
2021/12/05 03:58:47;;;;;;;4.22;2.00;;;;;;;4.45;83.39;99114.44;5034842;28;20437;-79
2021/12/05 04:01:14;;;;;;;5.97;1.50;;;;;;;4.49;83.42;99119.09;5035139;28;20399;-79
2021/12/05 04:03:42;;;;;;;8.20;1.50;;;;;;;4.38;83.52;99119.94;5039455;28;20961;-79
2021/12/05 04:06:11;;;;;;;2.15;1.00;;;;;;;4.36;83.40;99122.06;5033365;28;20443;-79
2021/12/05 04:08:40;;;;;;;6.30;1.75;;;;;;;4.39;83.61;99113.53;5032361;28;20407;-79
2021/12/05 04:11:12;;;;;;;8.32;1.25;;;;;;;4.49;82.86;99118.28;5032512;28;20786;-79
2021/12/05 04:13:38;;;;;;;5.85;1.45;;;;;;;4.57;83.16;99121.44;5054937;28;20406;-79
2021/12/05 04:16:06;;;;;;;5.13;1.40;;;;;;;4.70;83.11;99125.69;5043374;28;20411;-79
2021/12/05 04:18:32;;;;;;;5.65;1.17;;;;;;;4.64;83.31;99121.28;5035107;28;20410;-79
2021/12/05 04:20:58;;;;;;;6.77;2.00;;;;;;;4.62;83.31;99116.16;5041519;28;20772;-79
2021/12/05 04:23:24;;;;;;;4.38;0.93;;;;;;;4.66;83.22;99103.88;5040525;28;20439;-79
2021/12/05 04:25:51;;;;;;;2.20;0.93;;;;;;;4.68;82.55;99104.44;5035844;28;20445;-79
2021/12/05 04:28:18;;;;;;;4.90;1.00;;;;;;;4.71;82.54;99103.97;5037777;28;20430;-79
2021/12/05 04:30:44;;;;;;;4.38;1.30;;;;;;;4.72;81.87;99100.25;5030666;28;20434;-79
2021/12/05 04:33:09;;;;;;;3.35;0.82;;;;;;;4.82;81.63;99104.16;5033195;28;20445;-79
2021/12/05 04:35:35;;;;;;;2.95;0.95;;;;;;;4.87;81.34;99101.59;5040779;28;20878;-79
2021/12/05 04:38:00;;;;;;;4.73;1.10;;;;;;;4.82;81.30;99102.28;5037185;28;20959;-79
2021/12/05 04:40:26;;;;;;;4.80;1.25;;;;;;;4.80;81.53;99104.41;5034486;28;20468;-79
2021/12/05 04:42:51;;;;;;;3.53;0.93;;;;;;;4.79;82.11;99108.16;5039770;28;20409;-78
2021/12/05 04:45:28;;;;;;;6.63;1.53;;;;;;;4.80;81.43;99109.78;5041643;28;20409;-79
2021/12/05 04:47:55;;;;;;;4.40;1.17;;;;;;;4.74;82.23;99105.38;5036593;28;20863;-79
2021/12/05 04:50:20;;;;;;;6.20;1.67;;;;;;;4.78;81.93;99106.50;5034186;28;20402;-79
2021/12/05 04:52:47;;;;;;;6.33;2.57;;;;;;;4.63;82.45;99117.78;5031154;28;20893;-79
2021/12/05 04:55:12;;;;;;;6.68;3.10;;;;;;;4.60;82.70;99112.91;5028576;28;20502;-79
2021/12/05 04:57:39;;;;;;;5.80;1.50;;;;;;;4.64;82.90;99113.22;5039424;28;20409;-78
2021/12/05 05:00:12;;;;;;;7.72;1.98;;;;;;;4.63;83.06;99115.09;5045100;28;20778;-79
2021/12/05 05:02:38;;;;;;;6.80;1.80;;;;;;;4.74;82.64;99108.06;5040177;28;20498;-78
2021/12/05 05:05:04;;;;;;;5.22;1.30;;;;;;;4.72;82.41;99113.66;5035684;28;20407;-79
2021/12/05 05:07:30;;;;;;;6.55;1.48;;;;;;;4.70;82.25;99107.72;5035666;28;20415;-78
2021/12/05 05:09:59;;;;;;;4.68;1.50;;;;;;;4.70;82.62;99105.03;5044545;28;20768;-79
2021/12/05 05:12:25;;;;;;;2.47;1.30;;;;;;;4.72;82.10;99105.59;5038306;28;20487;-79
2021/12/05 05:14:52;;;;;;;9.20;3.55;;;;;;;4.72;82.35;99104.78;5039164;28;20586;-78
2021/12/05 05:17:18;;;;;;;7.80;3.40;;;;;;;4.73;81.85;99101.06;5042991;28;20411;-78
2021/12/05 05:19:49;;;;;;;4.05;1.65;;;;;;;4.81;82.42;99103.34;5040649;28;20757;-79
2021/12/05 05:25:25;;;;;;;5.90;2.00;;;;;;;4.74;81.77;99107.25;5036065;28;20411;-78
2021/12/05 05:43:26;;;;;;;7.60;1.90;;;;;;;4.54;81.54;99111.16;5045193;28;20500;-78
2021/12/05 05:51:05;;;;;;;7.13;2.17;;;;;;;4.26;82.91;99121.03;5050019;28;20399;-78
2021/12/05 05:53:31;;;;;;;6.72;2.50;;;;;;;4.13;83.60;99122.91;5043792;28;20446;-79
2021/12/05 05:55:56;;;;;;;7.40;3.65;;;;;;;4.23;83.52;99114.28;5039049;28;20446;-78
2021/12/05 05:58:28;;;;;;;4.78;2.40;;;;;;;4.24;83.43;99120.47;5040185;28;20773;-79
2021/12/05 06:01:03;;;;;;;11.38;2.40;;;;;;;4.27;83.22;99114.63;5042155;28;23036;-78
2021/12/05 06:03:29;;;;;;;5.47;1.92;;;;;;;4.27;83.17;99117.31;5035948;28;20770;-78
2021/12/05 06:06:00;;;;;;;9.27;2.08;;;;;;;4.16;83.52;99116.25;5043306;28;20411;-79
2021/12/05 06:08:30;;;;;;;4.93;1.87;;;;;;;4.17;83.30;99115.22;5054293;28;20427;-79
2021/12/05 06:10:58;;;;;;;7.32;1.98;;;;;;;4.21;83.48;99123.63;5048625;28;20449;-79
2021/12/05 06:13:25;;;;;;;11.07;2.60;;;;;;;4.22;83.38;99122.53;5045888;28;20433;-78
2021/12/05 06:15:51;;;;;;;4.05;1.35;;;;;;;4.30;82.74;99106.91;5038635;28;20431;-78
2021/12/05 06:18:17;;;;;;;4.38;1.60;;;;;;;4.32;82.41;99117.38;5038019;28;20419;-79
2021/12/05 06:20:42;;;;;;;4.93;1.50;;;;;;;4.28;83.03;99121.63;5034656;28;20429;-78
2021/12/05 06:23:09;;;;;;;5.43;1.63;;;;;;;4.19;83.03;99115.78;5035639;28;20410;-78
2021/12/05 06:25:37;;;;;;;5.40;1.40;;;;;;;4.13;83.17;99112.19;5044552;28;20761;-78
2021/12/05 06:28:09;;;;;;;5.38;1.60;;;;;;;3.99;83.99;99118.03;5046060;28;20485;-79
2021/12/05 06:46:27;;;;;;;11.77;3.83;;;;;;;4.34;82.58;99140.25;5043229;28;20425;-79
2021/12/05 06:48:52;;;;;;;9.03;3.37;;;;;;;4.42;82.44;99136.38;5033866;28;20413;-78
2021/12/05 06:51:22;;;;;;;6.68;2.97;;;;;;;4.43;82.51;99144.19;5034128;28;20472;-78
2021/12/05 06:53:47;;;;;;;5.07;1.80;;;;;;;4.46;82.63;99145.59;5037700;28;20746;-78
2021/12/05 06:56:13;;;;;;;6.27;1.30;;;;;;;4.49;82.34;99142.44;5043035;28;20420;-79
2021/12/05 06:58:38;;;;;;;4.13;1.23;;;;;;;4.52;82.07;99140.09;5032020;28;20406;-79
2021/12/05 07:01:07;;;;;;;4.67;1.10;;;;;;;4.47;81.69;99140.00;5037732;28;20520;-79
2021/12/05 07:03:33;;;;;;;3.30;1.08;;;;;;;4.48;82.07;99148.88;5033370;28;20809;-78
2021/12/05 07:06:03;;;;;;;4.25;1.58;;;;;;;4.49;81.90;99140.56;5033317;28;20411;-78
2021/12/05 07:08:33;;;;;;;4.82;1.50;;;;;;;4.57;81.54;99137.53;5025049;28;20495;-78
2021/12/05 07:14:26;;;;;;;3.00;1.40;;;;;;;4.56;80.91;99130.50;5007654;28;20613;-78
2021/12/05 07:16:58;;;;;;;4.97;1.10;;;;;;;4.55;80.58;99149.53;5028398;28;20422;-78
2021/12/05 07:22:00;;;;;;;3.37;1.70;;;;;;;4.63;80.45;99135.75;5028635;28;20443;-78
2021/12/05 07:24:42;;;;;;;5.50;1.23;;;;;;;4.65;79.96;99139.81;5026968;28;20468;-79
2021/12/05 07:40:35;;;;;;;4.35;1.67;;;;;;;4.94;79.32;99154.03;5026266;28;20469;-78
2021/12/05 07:43:04;;;;;;;5.53;1.87;;;;;;;4.97;79.34;99152.78;5031216;28;20399;-78
2021/12/05 07:45:37;;;;;;;6.03;2.08;;;;;;;5.01;79.25;99153.91;5035157;28;20446;-78
2021/12/05 07:48:15;;;;;;;4.40;2.05;;;;;;;5.02;79.09;99152.84;5027001;28;20454;-78
2021/12/05 07:50:51;;;;;;;4.88;1.52;;;;;;;5.05;78.65;99152.38;5026429;28;21089;-78
2021/12/05 07:53:26;;;;;;;4.22;1.33;;;;;;;5.01;78.56;99146.66;5029578;28;20407;-77
2021/12/05 07:55:55;;;;;;;3.20;1.17;;;;;;;4.99;78.58;99162.22;5042903;28;20411;-80
2021/12/05 07:58:47;;;;;;;4.03;1.23;;;;;;;5.08;78.54;99151.88;5029412;28;20413;-77
2021/12/05 08:15:06;;;;;;;7.25;1.38;;;;;;;5.33;78.05;99147.00;5019953;28;20418;-77
2021/12/05 08:17:32;;;;;;;4.38;1.20;;;;;;;5.42;77.91;99144.69;5020222;28;20407;-77
2021/12/05 08:19:57;;;;;;;4.53;1.20;;;;;;;5.50;77.45;99142.41;5018170;28;20424;-79
2021/12/05 08:22:24;;;;;;;3.77;1.23;;;;;;;5.46;77.37;99151.22;5020570;28;20422;-78
2021/12/05 08:24:51;;;;;;;5.10;1.00;;;;;;;5.49;76.64;99151.56;5017624;28;20403;-77
2021/12/05 08:27:16;;;;;;;4.10;1.33;;;;;;;5.50;76.03;99141.63;5025616;28;20413;-77
2021/12/05 08:29:47;;;;;;;5.30;1.40;;;;;;;5.55;76.70;99147.88;5017711;28;20438;-78
2021/12/05 08:32:27;;;;;;;2.17;1.10;;;;;;;5.61;76.57;99143.41;5020907;28;21478;-78
2021/12/05 08:45:47;;;;;;;5.10;2.15;;;;;;;5.47;77.73;99150.97;5020152;28;20414;-77
2021/12/05 09:26:51;;;;;;;3.03;1.05;;;;;;;5.12;83.57;99182.59;5023753;28;20439;-77
2021/12/05 09:40:07;;;;;;;4.68;2.20;;;;;;;5.25;82.92;99182.28;5027845;28;20412;-78
2021/12/05 10:10:51;;;;;;;2.60;2.03;;;;;;;5.99;80.46;99205.34;5003200;28;20467;-78
2021/12/05 10:13:28;;;;;;;10.32;4.50;;;;;;;5.81;80.78;99205.56;5034066;28;20491;-79
2021/12/05 10:16:43;;;;;;;11.05;4.32;;;;;;;5.86;81.67;99205.66;5035785;28;20414;-78
2021/12/05 10:38:15;;;;;;;1.55;0.90;;;;;;;6.13;79.30;99189.66;5037140;28;20429;-78
2021/12/05 10:40:52;;;;;;;3.03;1.90;;;;;;;6.16;79.61;99195.38;5037409;28;20425;-79
2021/12/05 10:43:21;;;;;;;2.90;1.30;;;;;;;6.15;79.43;99196.44;5047862;28;20405;-78
2021/12/05 10:45:53;;;;;;;14.30;7.00;;;;;;;6.14;79.67;99200.19;5040406;28;20411;-78
2021/12/05 10:48:26;;;;;;;8.80;4.70;;;;;;;6.06;80.23;99199.81;5033986;28;20427;-79
2021/12/05 10:50:55;;;;;;;2.58;1.67;;;;;;;6.08;80.26;99197.66;5031187;28;20407;-79
2021/12/05 10:53:44;;;;;;;3.10;1.50;;;;;;;6.02;80.77;99194.09;5037804;28;20417;-79
2021/12/05 10:56:15;;;;;;;1.73;1.00;;;;;;;6.08;81.00;99195.81;5032329;28;20418;-79
2021/12/05 10:58:53;;;;;;;3.03;1.73;;;;;;;6.20;79.64;99195.69;5055986;28;20486;-78
2021/12/05 11:01:35;;;;;;;2.53;1.23;;;;;;;6.09;80.15;99189.34;5037637;28;20453;-78
2021/12/05 11:04:03;;;;;;;5.07;1.70;;;;;;;5.80;80.47;99195.84;5034086;28;20499;-79
2021/12/05 11:06:33;;;;;;;3.08;1.20;;;;;;;5.65;81.98;99190.25;5034202;28;20808;-79
2021/12/05 11:09:05;;;;;;;2.17;1.15;;;;;;;5.66;82.00;99197.25;5037431;28;20405;-78
2021/12/05 11:11:31;;;;;;;5.57;1.10;;;;;;;5.85;81.75;99193.25;5038534;28;20499;-80
2021/12/05 11:14:01;;;;;;;1.85;0.73;;;;;;;5.87;80.58;99180.41;5035590;28;20490;-80
2021/12/05 11:16:41;;;;;;;4.55;1.00;;;;;;;5.81;81.17;99180.53;5039275;28;20413;-80
2021/12/05 11:19:21;;;;;;;2.53;1.00;;;;;;;6.14;79.27;99181.38;5034031;28;20402;-80
2021/12/05 11:21:53;;;;;;;3.63;1.17;;;;;;;6.19;79.77;99178.72;5038551;28;20488;-80
2021/12/05 11:24:30;;;;;;;5.05;1.65;;;;;;;6.47;77.52;99177.78;5036822;28;20403;-80
2021/12/05 11:27:04;;;;;;;2.05;1.58;;;;;;;6.71;77.98;99167.59;5031377;28;20473;-80
2021/12/05 11:30:03;;;;;;;4.05;2.20;;;;;;;6.71;78.42;99178.34;5042039;28;20458;-80
2021/12/05 11:32:42;;;;;;;5.43;3.17;;;;;;;6.61;78.18;99178.22;5039341;28;20829;-80
2021/12/05 11:35:13;;;;;;;1.77;1.33;;;;;;;6.77;77.99;99172.78;5034218;28;20439;-80
2021/12/05 11:37:56;;;;;;;3.45;1.27;;;;;;;6.77;75.96;99180.03;5045853;28;20823;-80
2021/12/05 11:40:24;;;;;;;2.88;0.82;;;;;;;6.35;77.62;99177.09;5034954;28;20853;-80
2021/12/05 11:43:02;;;;;;;2.88;1.15;;;;;;;6.10;79.41;99182.09;5030975;28;20488;-80
2021/12/05 11:45:30;;;;;;;2.72;1.20;;;;;;;6.05;79.52;99182.84;5042652;28;20484;-80
2021/12/05 11:47:56;;;;;;;1.23;1.00;;;;;;;5.66;81.07;99184.59;5038452;28;20424;-80
2021/12/05 11:50:34;;;;;;;4.25;1.25;;;;;;;5.87;81.89;99174.22;5035654;28;20444;-79
2021/12/05 11:52:59;;;;;;;3.80;1.30;;;;;;;6.02;80.69;99169.06;5037242;28;20855;-80
2021/12/05 11:55:28;;;;;;;2.23;1.30;;;;;;;6.10;80.63;99171.34;5032678;28;20442;-80
2021/12/05 11:57:54;;;;;;;1.83;1.00;;;;;;;6.09;78.84;99164.34;5034218;28;20426;-79
2021/12/05 12:00:22;;;;;;;2.75;1.02;;;;;;;6.01;79.63;99173.63;5034782;28;20780;-79
2021/12/05 12:02:49;;;;;;;2.05;1.90;;;;;;;5.98;80.56;99166.06;5031113;28;20415;-79
2021/12/05 12:05:29;;;;;;;4.97;2.27;;;;;;;6.15;80.88;99155.28;5045554;28;20422;-80
2021/12/05 12:08:07;;;;;;;2.17;1.20;;;;;;;6.21;79.97;99157.78;5041847;28;20427;-79
2021/12/05 12:10:49;;;;;;;2.20;1.50;;;;;;;6.35;79.45;99142.13;5034075;28;20407;-79
2021/12/05 12:13:20;;;;;;;3.30;2.03;;;;;;;6.63;78.87;99146.47;5031402;28;20409;-79
2021/12/05 12:15:57;;;;;;;5.70;2.25;;;;;;;6.82;77.91;99150.47;5036641;28;20411;-79
2021/12/05 12:18:28;;;;;;;3.92;2.00;;;;;;;6.78;78.50;99149.38;5033841;28;20423;-79
2021/12/05 12:20:54;;;;;;;5.22;2.63;;;;;;;6.81;78.18;99151.56;5029894;28;20461;-80
2021/12/05 12:23:20;;;;;;;3.50;1.70;;;;;;;6.98;77.17;99146.88;5029955;28;20944;-79
2021/12/05 12:25:50;;;;;;;3.13;2.15;;;;;;;7.06;77.93;99154.50;5030596;28;20441;-80
2021/12/05 12:28:17;;;;;;;4.60;2.33;;;;;;;7.19;77.37;99145.22;5038943;28;20453;-79
2021/12/05 12:30:45;;;;;;;4.13;2.47;;;;;;;7.11;77.78;99138.41;5030761;28;20410;-80
2021/12/05 12:33:20;;;;;;;8.55;4.63;;;;;;;7.22;77.11;99133.91;5046299;28;20401;-80
2021/12/05 12:35:47;;;;;;;7.73;2.87;;;;;;;6.98;77.72;99138.00;5036234;28;20893;-79
2021/12/05 12:38:14;;;;;;;5.85;3.33;;;;;;;6.87;78.87;99138.94;5038992;28;20466;-79
2021/12/05 12:40:53;;;;;;;4.50;2.50;;;;;;;7.00;78.88;99135.88;5047563;28;20419;-80
2021/12/05 12:43:39;;;;;;;5.90;2.45;;;;;;;7.20;77.92;99139.59;5040497;28;20407;-79
2021/12/05 12:46:15;;;;;;;4.90;2.58;;;;;;;7.41;76.97;99131.69;5044462;28;20409;-79
2021/12/05 12:48:40;;;;;;;5.85;2.60;;;;;;;7.25;77.48;99136.09;5035811;28;20830;-79
2021/12/05 12:51:05;;;;;;;4.20;2.60;;;;;;;7.01;78.65;99127.53;5043424;28;20488;-79
2021/12/05 12:53:38;;;;;;;4.73;1.83;;;;;;;6.63;79.26;99135.72;5030612;28;20537;-80
2021/12/05 12:56:18;;;;;;;5.20;2.50;;;;;;;6.36;80.08;99129.44;5046646;28;20411;-79
2021/12/05 12:58:45;;;;;;;7.07;3.22;;;;;;;6.29;80.98;99135.00;5039078;28;20407;-79
2021/12/05 13:10:08;;;;;;;3.05;1.30;;;;;;;6.23;79.23;99130.63;5038331;28;20406;-80
2021/12/05 13:12:39;;;;;;;5.00;2.10;;;;;;;6.18;79.93;99127.88;5038760;28;20790;-80
2021/12/05 13:15:17;;;;;;;2.95;1.65;;;;;;;6.18;80.34;99117.94;5044837;28;20892;-79
2021/12/05 13:17:58;;;;;;;3.85;1.40;;;;;;;6.12;79.76;99126.19;5043307;28;20484;-80
2021/12/05 13:20:53;;;;;;;5.53;3.90;;;;;;;5.93;79.49;99122.94;5054725;28;20419;-80
2021/12/05 13:23:37;;;;;;;5.10;3.80;;;;;;;5.87;80.07;99126.63;5048732;28;20417;-79
2021/12/05 13:26:23;;;;;;;3.53;2.80;;;;;;;5.87;79.11;99120.44;5048328;28;20411;-79
2021/12/05 13:29:19;;;;;;;5.57;3.83;;;;;;;5.73;79.51;99118.06;5033223;28;20928;-79
2021/12/05 13:32:11;;;;;;;2.47;1.73;;;;;;;5.65;79.81;99120.34;5032876;28;20411;-79
2021/12/05 13:34:43;;;;;;;5.82;3.97;;;;;;;5.53;79.94;99125.81;5041619;28;20464;-79
2021/12/05 13:37:08;;;;;;;6.88;2.95;;;;;;;5.55;79.82;99136.31;5044471;28;20418;-80
2021/12/05 13:39:43;;;;;;;3.87;2.20;;;;;;;5.62;79.69;99145.03;5054045;28;20411;-79
2021/12/05 13:42:17;;;;;;;4.05;2.00;;;;;;;5.66;79.71;99138.13;5034706;28;20414;-79
2021/12/05 13:45:00;;;;;;;1.92;1.40;;;;;;;5.77;79.47;99139.88;5051327;28;20460;-80
2021/12/05 13:47:42;;;;;;;1.77;1.50;;;;;;;5.86;79.03;99141.13;5045137;28;20411;-79
2021/12/05 13:50:23;;;;;;;3.65;1.90;;;;;;;6.05;78.92;99144.38;5037576;28;20413;-79
2021/12/05 13:53:01;;;;;;;2.22;1.25;;;;;;;6.30;76.39;99144.72;5032876;28;20499;-79
2021/12/05 13:55:37;;;;;;;0.80;0.70;;;;;;;6.42;75.91;99153.47;5039478;28;20407;-79
2021/12/05 13:58:28;;;;;;;2.58;1.10;;;;;;;6.42;75.24;99156.16;5037262;28;20909;-79
2021/12/05 14:01:16;;;;;;;2.67;1.03;;;;;;;6.25;75.57;99160.81;5042388;28;20520;-79
2021/12/05 14:04:03;;;;;;;2.10;1.55;;;;;;;6.09;76.42;99164.34;5037689;28;20522;-80
2021/12/05 14:06:57;;;;;;;3.78;1.33;;;;;;;5.97;78.04;99161.75;5041971;28;20409;-79
2021/12/05 14:09:46;;;;;;;4.30;1.30;;;;;;;5.87;77.14;99166.97;5033415;28;20395;-79
2021/12/05 14:12:19;;;;;;;2.08;1.42;;;;;;;5.81;78.02;99161.72;5034499;28;20502;-79
2021/12/05 14:14:53;;;;;;;2.63;2.00;;;;;;;5.77;78.92;99169.47;5038260;28;20421;-79
2021/12/05 14:17:25;;;;;;;4.13;1.70;;;;;;;5.71;79.21;99167.75;5033810;28;20408;-79
2021/12/05 14:19:54;;;;;;;3.35;1.75;;;;;;;5.68;79.32;99163.69;5041383;28;20419;-78
2021/12/05 14:22:23;;;;;;;3.20;1.80;;;;;;;5.66;79.47;99170.38;5044307;28;20418;-79
2021/12/05 14:24:55;;;;;;;4.88;3.47;;;;;;;5.62;79.11;99170.03;5053960;28;20401;-78
2021/12/05 14:27:24;;;;;;;4.07;2.90;;;;;;;5.59;80.10;99172.41;5045328;28;20912;-78
2021/12/05 14:29:52;;;;;;;4.88;2.70;;;;;;;5.52;80.24;99185.19;5036261;28;20489;-78
2021/12/05 14:32:22;;;;;;;4.50;2.47;;;;;;;5.43;80.71;99176.72;5034964;28;20954;-79
2021/12/05 14:34:52;;;;;;;3.50;2.67;;;;;;;5.37;81.33;99176.88;5033554;28;20409;-78
2021/12/05 14:37:20;;;;;;;3.05;2.05;;;;;;;5.32;81.65;99191.00;5040755;28;20437;-78
2021/12/05 14:39:49;;;;;;;3.95;1.67;;;;;;;5.27;81.38;99192.81;5049761;28;20443;-79
2021/12/05 14:42:18;;;;;;;5.78;2.17;;;;;;;5.22;81.39;99185.47;5032806;28;20403;-79
2021/12/05 14:44:49;;;;;;;2.13;1.92;;;;;;;5.19;81.50;99194.81;5034631;28;20480;-78
2021/12/05 14:47:18;;;;;;;4.55;1.88;;;;;;;5.15;81.67;99190.97;5046283;28;20423;-78
2021/12/05 14:49:55;;;;;;;4.90;1.83;;;;;;;5.14;81.72;99204.63;5044399;28;21651;-79
2021/12/05 14:52:27;;;;;;;2.40;1.98;;;;;;;5.16;82.18;99202.53;5037369;28;20435;-79
2021/12/05 14:54:54;;;;;;;3.25;1.73;;;;;;;5.19;82.55;99208.25;5037532;28;20407;-78
2021/12/05 14:57:23;;;;;;;2.35;1.88;;;;;;;5.25;82.57;99206.47;5035656;28;20405;-79
2021/12/05 14:59:50;;;;;;;3.63;1.80;;;;;;;5.30;82.97;99203.06;5046545;28;20405;-78
2021/12/05 15:02:18;;;;;;;5.45;1.95;;;;;;;5.36;82.55;99208.28;5030452;28;20433;-79
2021/12/05 15:04:47;;;;;;;3.50;1.65;;;;;;;5.42;82.33;99212.69;5032156;28;20407;-79
2021/12/05 15:07:13;;;;;;;4.82;1.92;;;;;;;5.45;81.81;99220.25;5030339;28;20419;-79
2021/12/05 15:09:45;;;;;;;2.37;1.83;;;;;;;5.45;82.06;99214.88;5040037;28;20394;-79
2021/12/05 15:12:19;;;;;;;3.47;1.60;;;;;;;5.44;82.18;99220.50;5034243;28;20403;-78
2021/12/05 15:14:48;;;;;;;5.22;1.52;;;;;;;5.40;82.61;99228.22;5041425;28;20957;-79
2021/12/05 15:17:19;;;;;;;3.95;1.50;;;;;;;5.37;82.50;99227.91;5045121;28;20748;-78
2021/12/05 15:19:51;;;;;;;4.70;1.75;;;;;;;5.36;83.04;99223.59;5033179;28;20399;-78
2021/12/05 15:22:18;;;;;;;2.20;1.17;;;;;;;5.37;82.12;99227.91;5033506;28;20972;-79
2021/12/05 15:24:55;;;;;;;2.88;1.33;;;;;;;5.38;82.17;99234.91;5036361;28;20409;-80
2021/12/05 15:27:26;;;;;;;4.55;1.50;;;;;;;5.38;81.71;99235.72;5039586;28;20434;-79
2021/12/05 15:29:55;;;;;;;2.65;1.33;;;;;;;5.36;82.36;99237.03;5036890;28;20742;-79
2021/12/05 15:32:24;;;;;;;2.65;1.02;;;;;;;5.28;82.02;99240.06;5045398;28;20405;-78
2021/12/05 15:34:59;;;;;;;2.55;1.20;;;;;;;5.21;82.59;99248.28;5037402;28;20760;-79
2021/12/05 15:37:24;;;;;;;4.28;1.92;;;;;;;5.22;82.81;99255.28;5031558;28;20406;-79
2021/12/05 15:39:52;;;;;;;3.30;1.10;;;;;;;5.26;82.71;99261.00;5039986;28;21905;-80
2021/12/05 15:42:20;;;;;;;2.85;1.67;;;;;;;5.30;82.46;99256.78;5037311;28;20444;-79
2021/12/05 15:44:47;;;;;;;5.07;1.67;;;;;;;5.31;82.42;99264.59;5039009;28;20422;-79
2021/12/05 15:47:17;;;;;;;4.50;1.15;;;;;;;5.28;82.62;99275.81;5037584;28;20959;-78
2021/12/05 15:49:47;;;;;;;2.80;1.08;;;;;;;5.20;83.06;99266.25;5036955;28;20421;-78
2021/12/05 15:52:13;;;;;;;4.40;1.60;;;;;;;5.21;83.18;99272.44;5040105;28;20395;-79
2021/12/05 15:54:42;;;;;;;3.20;1.20;;;;;;;5.23;83.40;99281.91;5034720;28;20449;-80
2021/12/05 15:57:18;;;;;;;3.00;1.45;;;;;;;5.25;83.39;99287.03;5042321;28;20411;-79
2021/12/05 15:59:45;;;;;;;2.95;1.20;;;;;;;5.27;83.60;99278.75;5032882;28;20418;-81
2021/12/05 16:02:11;;;;;;;3.25;1.70;;;;;;;5.28;83.45;99283.88;5036407;28;20418;-79
2021/12/05 16:04:39;;;;;;;3.70;1.87;;;;;;;5.29;83.48;99290.06;5038062;28;20412;-79
2021/12/05 16:07:08;;;;;;;3.23;2.20;;;;;;;5.28;82.83;99288.44;5034052;28;20437;-79
2021/12/05 16:09:35;;;;;;;4.78;2.85;;;;;;;5.26;83.39;99294.06;5032008;28;20395;-82
2021/12/05 16:12:13;;;;;;;5.68;3.00;;;;;;;5.25;83.38;99289.72;5031906;28;20972;-82
2021/12/05 16:14:49;;;;;;;6.50;5.03;;;;;;;5.20;83.19;99287.75;5053000;28;20421;-79
2021/12/05 16:17:26;;;;;;;11.48;7.80;;;;;;;5.10;83.09;99284.84;5038494;28;20520;-80
2021/12/05 16:20:06;;;;;;;12.18;9.70;;;;;;;5.02;83.63;99297.84;5049748;28;20742;-80
2021/12/05 16:22:31;;;;;;;19.40;12.23;;;;;;;4.95;83.33;99295.28;5036013;28;20899;-81
2021/12/05 16:24:56;;;;;;;22.00;13.67;;;;;;;4.92;83.75;99293.09;5038651;28;20496;-81
2021/12/05 16:27:22;;;;;;;17.30;11.40;;;;;;;4.90;83.91;99297.06;5034656;28;20419;-81
2021/12/05 16:29:47;;;;;;;24.00;13.67;;;;;;;4.90;83.96;99302.44;5033062;28;20407;-79
2021/12/05 16:32:13;;;;;;;22.07;14.47;;;;;;;4.90;84.43;99303.25;5032275;28;20470;-80
2021/12/05 16:34:42;;;;;;;25.77;17.13;;;;;;;4.93;84.08;99300.09;5032918;28;20498;-80
2021/12/05 16:37:10;;;;;;;27.73;17.77;;;;;;;4.96;83.80;99306.84;5033562;28;20492;-79
2021/12/05 16:39:44;;;;;;;30.13;20.55;;;;;;;4.97;83.88;99303.91;5039696;28;20430;-81
2021/12/05 16:42:17;;;;;;;36.00;23.03;;;;;;;4.98;83.53;99307.41;5032995;28;20910;-78
2021/12/05 16:44:51;;;;;;;37.25;24.55;;;;;;;5.01;84.05;99312.31;5032774;28;20494;-78
2021/12/05 16:47:19;;;;;;;35.00;22.92;;;;;;;5.03;83.89;99316.41;5046101;28;20407;-78
2021/12/05 16:49:50;;;;;;;31.85;21.80;;;;;;;5.06;84.08;99313.25;5032665;28;20395;-78